sensor_id;sensor_type;location;lat;lon;timestamp;pressure;altitude;pressure_sealevel;temperature;humidity
55347;BME280;41218;55.700;38.270;2023-04-25T00:04:31;99674.25;;;10.16;47.47
55347;BME280;41218;55.700;38.270;2023-04-25T00:09:33;99671.09;;;10.17;47.57
55347;BME280;41218;55.700;38.270;2023-04-25T00:14:34;99658.75;;;10.11;47.85
55347;BME280;41218;55.700;38.270;2023-04-25T00:19:35;99673.84;;;10.17;47.18
55347;BME280;41218;55.700;38.270;2023-04-25T00:24:37;99657.84;;;10.03;47.97
55347;BME280;41218;55.700;38.270;2023-04-25T00:29:38;99657.03;;;10.03;47.88
55347;BME280;41218;55.700;38.270;2023-04-25T00:34:38;99660.91;;;9.98;48.21
55347;BME280;41218;55.700;38.270;2023-04-25T00:39:40;99661.97;;;9.90;48.04
55347;BME280;41218;55.700;38.270;2023-04-25T00:44:40;99653.06;;;9.77;48.29
55347;BME280;41218;55.700;38.270;2023-04-25T00:49:41;99661.41;;;9.81;48.52
55347;BME280;41218;55.700;38.270;2023-04-25T00:54:41;99658.59;;;9.77;48.74
55347;BME280;41218;55.700;38.270;2023-04-25T00:59:45;99631.31;;;9.53;48.83
55347;BME280;41218;55.700;38.270;2023-04-25T01:04:47;99652.06;;;9.66;49.21
55347;BME280;41218;55.700;38.270;2023-04-25T01:09:48;99642.06;;;9.58;48.98
55347;BME280;41218;55.700;38.270;2023-04-25T01:14:50;99638.44;;;9.54;49.06
55347;BME280;41218;55.700;38.270;2023-04-25T01:19:50;99645.06;;;9.49;49.31
55347;BME280;41218;55.700;38.270;2023-04-25T01:24:51;99654.84;;;9.47;49.53
55347;BME280;41218;55.700;38.270;2023-04-25T01:29:54;99669.31;;;9.40;49.91
55347;BME280;41218;55.700;38.270;2023-04-25T01:34:54;99658.19;;;9.36;49.70
55347;BME280;41218;55.700;38.270;2023-04-25T01:39:55;99663.28;;;9.34;49.66
55347;BME280;41218;55.700;38.270;2023-04-25T01:44:56;99658.84;;;9.30;50.00
55347;BME280;41218;55.700;38.270;2023-04-25T01:49:56;99663.84;;;9.24;49.66
55347;BME280;41218;55.700;38.270;2023-04-25T01:54:57;99672.09;;;9.20;50.09
55347;BME280;41218;55.700;38.270;2023-04-25T02:00:02;99679.00;;;9.14;50.35
55347;BME280;41218;55.700;38.270;2023-04-25T02:05:03;99670.97;;;9.06;50.42
55347;BME280;41218;55.700;38.270;2023-04-25T02:10:04;99684.75;;;9.06;50.50
55347;BME280;41218;55.700;38.270;2023-04-25T02:15:05;99672.94;;;9.05;50.41
55347;BME280;41218;55.700;38.270;2023-04-25T02:20:06;99658.97;;;8.98;50.43
55347;BME280;41218;55.700;38.270;2023-04-25T02:25:08;99653.03;;;8.96;50.34
55347;BME280;41218;55.700;38.270;2023-04-25T02:30:09;99666.63;;;9.05;50.39
55347;BME280;41218;55.700;38.270;2023-04-25T02:35:10;99674.50;;;9.06;50.61
55347;BME280;41218;55.700;38.270;2023-04-25T02:40:10;99677.28;;;9.06;50.68
55347;BME280;41218;55.700;38.270;2023-04-25T02:45:11;99666.53;;;9.01;50.85
55347;BME280;41218;55.700;38.270;2023-04-25T02:50:12;99673.28;;;9.03;50.89
55347;BME280;41218;55.700;38.270;2023-04-25T02:55:13;99671.69;;;9.02;50.75
55347;BME280;41218;55.700;38.270;2023-04-25T03:00:13;99680.19;;;9.13;50.04
55347;BME280;41218;55.700;38.270;2023-04-25T03:05:14;99667.75;;;9.03;50.52
55347;BME280;41218;55.700;38.270;2023-04-25T03:10:15;99690.78;;;9.11;50.70
55347;BME280;41218;55.700;38.270;2023-04-25T03:15:15;99692.44;;;9.16;50.84
55347;BME280;41218;55.700;38.270;2023-04-25T03:20:16;99682.22;;;9.16;50.90
55347;BME280;41218;55.700;38.270;2023-04-25T03:25:17;99683.09;;;9.20;51.01
55347;BME280;41218;55.700;38.270;2023-04-25T03:30:17;99697.03;;;9.28;50.93
55347;BME280;41218;55.700;38.270;2023-04-25T03:35:18;99696.00;;;9.36;51.38
55347;BME280;41218;55.700;38.270;2023-04-25T03:40:19;99693.78;;;9.41;51.73
55347;BME280;41218;55.700;38.270;2023-04-25T03:45:19;99695.50;;;9.50;52.61
55347;BME280;41218;55.700;38.270;2023-04-25T03:50:20;99692.53;;;9.58;52.68
55347;BME280;41218;55.700;38.270;2023-04-25T03:55:20;99678.00;;;9.61;53.17
55347;BME280;41218;55.700;38.270;2023-04-25T04:00:21;99686.22;;;9.81;53.26
55347;BME280;41218;55.700;38.270;2023-04-25T04:05:22;99690.78;;;9.93;53.72
55347;BME280;41218;55.700;38.270;2023-04-25T04:10:22;99688.22;;;10.03;54.10
55347;BME280;41218;55.700;38.270;2023-04-25T04:15:23;99676.94;;;10.12;54.46
55347;BME280;41218;55.700;38.270;2023-04-25T04:20:23;99676.09;;;10.31;54.20
55347;BME280;41218;55.700;38.270;2023-04-25T04:25:24;99674.34;;;10.46;54.46
55347;BME280;41218;55.700;38.270;2023-04-25T04:30:25;99659.88;;;10.53;54.80
55347;BME280;41218;55.700;38.270;2023-04-25T04:35:25;99685.47;;;10.76;54.60
55347;BME280;41218;55.700;38.270;2023-04-25T04:40:26;99679.72;;;10.89;54.71
55347;BME280;41218;55.700;38.270;2023-04-25T04:45:26;99686.31;;;11.07;54.98
55347;BME280;41218;55.700;38.270;2023-04-25T04:50:27;99663.19;;;11.22;54.72
55347;BME280;41218;55.700;38.270;2023-04-25T04:55:28;99673.69;;;11.40;54.63
55347;BME280;41218;55.700;38.270;2023-04-25T05:00:29;99674.25;;;11.56;54.72
55347;BME280;41218;55.700;38.270;2023-04-25T05:05:29;99666.84;;;11.68;54.40
55347;BME280;41218;55.700;38.270;2023-04-25T05:10:30;99677.81;;;11.91;54.30
55347;BME280;41218;55.700;38.270;2023-04-25T05:15:30;99678.38;;;12.07;54.29
55347;BME280;41218;55.700;38.270;2023-04-25T05:20:31;99689.19;;;12.23;54.33
55347;BME280;41218;55.700;38.270;2023-04-25T05:25:32;99692.50;;;12.39;53.78
55347;BME280;41218;55.700;38.270;2023-04-25T05:30:34;99670.81;;;12.52;53.70
55347;BME280;41218;55.700;38.270;2023-04-25T05:35:34;99672.53;;;12.75;53.31
55347;BME280;41218;55.700;38.270;2023-04-25T05:40:35;99656.00;;;12.93;53.05
55347;BME280;41218;55.700;38.270;2023-04-25T05:45:36;99651.75;;;13.13;53.01
55347;BME280;41218;55.700;38.270;2023-04-25T05:50:36;99642.75;;;13.31;52.31
55347;BME280;41218;55.700;38.270;2023-04-25T05:55:37;99635.66;;;13.48;52.24
55347;BME280;41218;55.700;38.270;2023-04-25T06:00:38;99635.28;;;13.63;51.68
55347;BME280;41218;55.700;38.270;2023-04-25T06:05:39;99634.13;;;13.79;51.40
55347;BME280;41218;55.700;38.270;2023-04-25T06:10:39;99625.00;;;13.96;51.19
55347;BME280;41218;55.700;38.270;2023-04-25T06:15:40;99613.91;;;14.11;50.66
55347;BME280;41218;55.700;38.270;2023-04-25T06:20:40;99621.84;;;14.27;50.27
55347;BME280;41218;55.700;38.270;2023-04-25T06:25:41;99615.88;;;14.42;50.15
55347;BME280;41218;55.700;38.270;2023-04-25T06:30:41;99623.84;;;14.58;49.60
55347;BME280;41218;55.700;38.270;2023-04-25T06:35:42;99612.66;;;14.73;49.33
55347;BME280;41218;55.700;38.270;2023-04-25T06:40:43;99617.41;;;14.87;49.05
55347;BME280;41218;55.700;38.270;2023-04-25T06:45:43;99613.41;;;14.95;48.91
55347;BME280;41218;55.700;38.270;2023-04-25T06:50:44;99616.50;;;15.15;48.47
55347;BME280;41218;55.700;38.270;2023-04-25T06:55:44;99620.41;;;15.32;48.18
55347;BME280;41218;55.700;38.270;2023-04-25T07:00:45;99624.25;;;15.56;47.64
55347;BME280;41218;55.700;38.270;2023-04-25T07:05:46;99613.03;;;15.67;47.37
55347;BME280;41218;55.700;38.270;2023-04-25T07:10:46;99617.34;;;15.86;46.89
55347;BME280;41218;55.700;38.270;2023-04-25T07:15:47;99612.44;;;16.00;46.88
55347;BME280;41218;55.700;38.270;2023-04-25T07:20:48;99610.81;;;16.03;46.54
55347;BME280;41218;55.700;38.270;2023-04-25T07:25:49;99630.06;;;16.35;46.33
55347;BME280;41218;55.700;38.270;2023-04-25T07:30:49;99633.81;;;16.59;45.62
55347;BME280;41218;55.700;38.270;2023-04-25T07:35:50;99632.50;;;16.75;45.07
55347;BME280;41218;55.700;38.270;2023-04-25T07:40:50;99627.56;;;16.90;44.62
55347;BME280;41218;55.700;38.270;2023-04-25T07:45:51;99627.00;;;17.06;43.87
55347;BME280;41218;55.700;38.270;2023-04-25T07:50:51;99628.34;;;17.25;43.46
55347;BME280;41218;55.700;38.270;2023-04-25T07:55:52;99621.94;;;17.28;43.29
55347;BME280;41218;55.700;38.270;2023-04-25T08:00:53;99625.16;;;17.53;43.01
55347;BME280;41218;55.700;38.270;2023-04-25T08:05:53;99622.16;;;17.68;42.93
55347;BME280;41218;55.700;38.270;2023-04-25T08:10:54;99623.41;;;17.94;42.89
55347;BME280;41218;55.700;38.270;2023-04-25T08:15:54;99612.94;;;17.98;42.47
55347;BME280;41218;55.700;38.270;2023-04-25T08:20:54;99600.38;;;18.10;42.28
55347;BME280;41218;55.700;38.270;2023-04-25T08:25:55;99601.53;;;18.12;41.91
55347;BME280;41218;55.700;38.270;2023-04-25T08:30:55;99587.59;;;18.32;41.89
55347;BME280;41218;55.700;38.270;2023-04-25T08:35:56;99576.84;;;18.31;41.19
55347;BME280;41218;55.700;38.270;2023-04-25T08:40:56;99576.44;;;18.52;41.31
55347;BME280;41218;55.700;38.270;2023-04-25T08:45:59;99566.13;;;18.49;40.04
55347;BME280;41218;55.700;38.270;2023-04-25T08:51:02;99562.63;;;18.45;39.84
55347;BME280;41218;55.700;38.270;2023-04-25T08:56:04;99561.34;;;18.70;39.52
55347;BME280;41218;55.700;38.270;2023-04-25T09:01:06;99570.34;;;18.77;39.61
55347;BME280;41218;55.700;38.270;2023-04-25T09:06:06;99564.38;;;18.99;39.56
55347;BME280;41218;55.700;38.270;2023-04-25T09:11:07;99557.47;;;19.04;38.85
55347;BME280;41218;55.700;38.270;2023-04-25T09:16:07;99549.91;;;19.20;38.97
55347;BME280;41218;55.700;38.270;2023-04-25T09:21:12;99559.75;;;19.29;37.93
55347;BME280;41218;55.700;38.270;2023-04-25T09:26:17;99555.69;;;19.30;37.09
55347;BME280;41218;55.700;38.270;2023-04-25T09:31:24;99537.13;;;19.19;37.45
55347;BME280;41218;55.700;38.270;2023-04-25T09:36:27;99533.97;;;19.17;37.54
55347;BME280;41218;55.700;38.270;2023-04-25T09:41:27;99527.16;;;19.18;37.80
55347;BME280;41218;55.700;38.270;2023-04-25T09:46:33;99529.53;;;19.36;36.78
55347;BME280;41218;55.700;38.270;2023-04-25T09:51:35;99532.94;;;19.44;37.35
55347;BME280;41218;55.700;38.270;2023-04-25T09:56:36;99513.59;;;19.50;37.19
55347;BME280;41218;55.700;38.270;2023-04-25T10:01:39;99519.84;;;19.57;37.00
55347;BME280;41218;55.700;38.270;2023-04-25T10:06:42;99519.31;;;19.62;36.63
55347;BME280;41218;55.700;38.270;2023-04-25T10:11:44;99512.69;;;19.73;36.34
55347;BME280;41218;55.700;38.270;2023-04-25T10:16:47;99509.44;;;19.74;36.27
55347;BME280;41218;55.700;38.270;2023-04-25T10:27:13;99516.19;;;19.93;36.50
55347;BME280;41218;55.700;38.270;2023-04-25T10:32:14;99501.19;;;20.00;36.23
55347;BME280;41218;55.700;38.270;2023-04-25T10:37:17;99503.56;;;20.01;36.38
55347;BME280;41218;55.700;38.270;2023-04-25T10:42:19;99495.56;;;20.00;36.52
55347;BME280;41218;55.700;38.270;2023-04-25T10:47:34;99486.13;;;19.94;36.31
55347;BME280;41218;55.700;38.270;2023-04-25T10:52:38;99482.69;;;19.86;36.14
55347;BME280;41218;55.700;38.270;2023-04-25T11:02:43;99472.38;;;19.83;36.36
55347;BME280;41218;55.700;38.270;2023-04-25T11:07:53;99460.34;;;19.83;36.75
55347;BME280;41218;55.700;38.270;2023-04-25T11:12:58;99457.72;;;19.92;36.21
55347;BME280;41218;55.700;38.270;2023-04-25T11:18:00;99451.13;;;19.98;36.34
55347;BME280;41218;55.700;38.270;2023-04-25T11:23:00;99436.09;;;20.05;36.08
55347;BME280;41218;55.700;38.270;2023-04-25T11:28:01;99425.78;;;20.02;36.02
55347;BME280;41218;55.700;38.270;2023-04-25T11:33:01;99427.00;;;20.01;36.07
55347;BME280;41218;55.700;38.270;2023-04-25T11:38:03;99425.88;;;19.98;35.89
55347;BME280;41218;55.700;38.270;2023-04-25T11:43:04;99413.88;;;19.98;36.01
55347;BME280;41218;55.700;38.270;2023-04-25T11:48:05;99419.66;;;19.91;35.90
55347;BME280;41218;55.700;38.270;2023-04-25T11:53:05;99406.63;;;19.84;36.05
55347;BME280;41218;55.700;38.270;2023-04-25T11:58:06;99399.13;;;19.81;36.11
55347;BME280;41218;55.700;38.270;2023-04-25T12:03:09;99401.03;;;19.84;36.15
55347;BME280;41218;55.700;38.270;2023-04-25T12:08:13;99387.34;;;19.86;35.96
55347;BME280;41218;55.700;38.270;2023-04-25T12:13:24;99367.38;;;19.84;35.42
55347;BME280;41218;55.700;38.270;2023-04-25T12:18:25;99354.28;;;19.94;35.59
55347;BME280;41218;55.700;38.270;2023-04-25T12:23:29;99355.56;;;20.06;35.42
55347;BME280;41218;55.700;38.270;2023-04-25T12:28:32;99340.53;;;20.12;35.13
55347;BME280;41218;55.700;38.270;2023-04-25T12:33:34;99338.22;;;20.24;35.01
55347;BME280;41218;55.700;38.270;2023-04-25T12:38:37;99335.63;;;20.29;34.76
55347;BME280;41218;55.700;38.270;2023-04-25T12:43:38;99319.00;;;20.35;35.02
55347;BME280;41218;55.700;38.270;2023-04-25T12:48:39;99317.22;;;20.28;34.65
55347;BME280;41218;55.700;38.270;2023-04-25T12:53:40;99309.47;;;20.32;34.52
55347;BME280;41218;55.700;38.270;2023-04-25T12:58:41;99300.81;;;20.39;34.31
55347;BME280;41218;55.700;38.270;2023-04-25T13:03:44;99294.09;;;20.37;34.22
55347;BME280;41218;55.700;38.270;2023-04-25T13:08:45;99273.53;;;20.27;34.39
55347;BME280;41218;55.700;38.270;2023-04-25T13:13:45;99268.84;;;20.24;34.41
55347;BME280;41218;55.700;38.270;2023-04-25T13:18:46;99258.63;;;20.17;34.08
55347;BME280;41218;55.700;38.270;2023-04-25T13:23:46;99246.03;;;20.09;34.07
55347;BME280;41218;55.700;38.270;2023-04-25T13:28:47;99235.72;;;20.06;33.75
55347;BME280;41218;55.700;38.270;2023-04-25T13:33:47;99238.75;;;20.12;33.89
55347;BME280;41218;55.700;38.270;2023-04-25T13:38:48;99233.38;;;20.17;34.05
55347;BME280;41218;55.700;38.270;2023-04-25T13:43:49;99217.09;;;20.12;33.79
55347;BME280;41218;55.700;38.270;2023-04-25T13:48:49;99205.97;;;20.09;33.89
55347;BME280;41218;55.700;38.270;2023-04-25T13:53:50;99211.13;;;20.10;33.83
55347;BME280;41218;55.700;38.270;2023-04-25T13:58:51;99200.78;;;19.94;33.62
55347;BME280;41218;55.700;38.270;2023-04-25T14:03:54;99189.44;;;19.72;33.89
55347;BME280;41218;55.700;38.270;2023-04-25T14:08:56;99189.97;;;19.67;33.84
55347;BME280;41218;55.700;38.270;2023-04-25T14:13:56;99183.22;;;19.65;33.99
55347;BME280;41218;55.700;38.270;2023-04-25T14:19:00;99164.50;;;19.49;33.66
55347;BME280;41218;55.700;38.270;2023-04-25T14:24:01;99153.81;;;19.44;34.22
55347;BME280;41218;55.700;38.270;2023-04-25T14:29:02;99156.53;;;19.47;34.27
55347;BME280;41218;55.700;38.270;2023-04-25T14:34:02;99150.56;;;19.45;34.09
55347;BME280;41218;55.700;38.270;2023-04-25T14:39:03;99138.44;;;19.35;34.34
55347;BME280;41218;55.700;38.270;2023-04-25T14:44:05;99138.88;;;19.34;34.26
55347;BME280;41218;55.700;38.270;2023-04-25T14:49:06;99119.94;;;19.25;34.26
55347;BME280;41218;55.700;38.270;2023-04-25T14:54:06;99106.56;;;19.16;34.47
55347;BME280;41218;55.700;38.270;2023-04-25T14:59:07;99103.44;;;19.14;34.57
55347;BME280;41218;55.700;38.270;2023-04-25T15:04:08;99090.19;;;19.02;35.11
55347;BME280;41218;55.700;38.270;2023-04-25T15:09:08;99089.34;;;18.89;35.32
55347;BME280;41218;55.700;38.270;2023-04-25T15:14:10;99081.59;;;18.80;35.72
55347;BME280;41218;55.700;38.270;2023-04-25T15:19:11;99068.81;;;18.79;35.91
55347;BME280;41218;55.700;38.270;2023-04-25T15:24:11;99060.13;;;18.73;36.07
55347;BME280;41218;55.700;38.270;2023-04-25T15:29:14;99052.19;;;18.72;36.00
55347;BME280;41218;55.700;38.270;2023-04-25T15:34:15;99046.78;;;18.65;36.29
55347;BME280;41218;55.700;38.270;2023-04-25T15:39:16;99033.44;;;18.56;36.43
55347;BME280;41218;55.700;38.270;2023-04-25T15:44:16;99031.16;;;18.51;36.38
55347;BME280;41218;55.700;38.270;2023-04-25T15:49:17;99025.28;;;18.61;36.33
55347;BME280;41218;55.700;38.270;2023-04-25T15:54:18;99013.47;;;18.41;37.16
55347;BME280;41218;55.700;38.270;2023-04-25T15:59:19;99032.16;;;18.44;38.29
55347;BME280;41218;55.700;38.270;2023-04-25T16:04:19;99026.72;;;18.37;38.62
55347;BME280;41218;55.700;38.270;2023-04-25T16:09:19;99020.63;;;18.42;38.19
55347;BME280;41218;55.700;38.270;2023-04-25T16:14:21;99025.72;;;18.14;38.64
55347;BME280;41218;55.700;38.270;2023-04-25T16:19:21;99023.41;;;18.13;38.52
55347;BME280;41218;55.700;38.270;2023-04-25T16:24:22;99032.75;;;17.90;39.05
55347;BME280;41218;55.700;38.270;2023-04-25T16:29:22;99027.16;;;17.90;38.82
55347;BME280;41218;55.700;38.270;2023-04-25T16:34:23;99036.56;;;17.79;39.57
55347;BME280;41218;55.700;38.270;2023-04-25T16:39:26;99043.13;;;17.73;40.22
55347;BME280;41218;55.700;38.270;2023-04-25T16:44:26;99050.88;;;17.81;39.79
55347;BME280;41218;55.700;38.270;2023-04-25T16:49:27;99040.81;;;17.68;40.45
55347;BME280;41218;55.700;38.270;2023-04-25T16:54:27;99050.38;;;17.70;40.03
55347;BME280;41218;55.700;38.270;2023-04-25T16:59:28;99050.59;;;17.43;41.25
55347;BME280;41218;55.700;38.270;2023-04-25T17:04:28;99054.16;;;17.43;41.34
55347;BME280;41218;55.700;38.270;2023-04-25T17:09:29;99042.25;;;17.23;41.56
55347;BME280;41218;55.700;38.270;2023-04-25T17:14:29;99050.13;;;17.28;41.01
55347;BME280;41218;55.700;38.270;2023-04-25T17:19:32;99047.28;;;17.12;41.45
55347;BME280;41218;55.700;38.270;2023-04-25T17:24:32;99045.34;;;17.09;41.24
55347;BME280;41218;55.700;38.270;2023-04-25T17:29:33;99051.81;;;16.86;42.07
55347;BME280;41218;55.700;38.270;2023-04-25T17:34:34;99042.03;;;16.74;42.53
55347;BME280;41218;55.700;38.270;2023-04-25T17:39:37;99028.75;;;16.61;42.79
55347;BME280;41218;55.700;38.270;2023-04-25T17:44:37;99034.19;;;16.69;42.30
55347;BME280;41218;55.700;38.270;2023-04-25T17:49:38;99032.00;;;16.56;43.19
55347;BME280;41218;55.700;38.270;2023-04-25T17:54:39;99012.50;;;16.36;43.45
55347;BME280;41218;55.700;38.270;2023-04-25T17:59:39;99023.00;;;16.49;43.03
55347;BME280;41218;55.700;38.270;2023-04-25T18:04:40;99006.63;;;16.31;43.82
55347;BME280;41218;55.700;38.270;2023-04-25T18:09:40;99007.53;;;16.24;44.27
55347;BME280;41218;55.700;38.270;2023-04-25T18:14:41;99007.19;;;16.22;44.66
55347;BME280;41218;55.700;38.270;2023-04-25T18:19:41;99000.22;;;16.10;45.08
55347;BME280;41218;55.700;38.270;2023-04-25T18:24:42;98996.41;;;16.00;45.67
55347;BME280;41218;55.700;38.270;2023-04-25T18:29:46;99005.59;;;15.97;45.90
55347;BME280;41218;55.700;38.270;2023-04-25T18:34:46;98992.59;;;15.91;46.09
55347;BME280;41218;55.700;38.270;2023-04-25T18:39:49;98992.22;;;15.89;46.59
55347;BME280;41218;55.700;38.270;2023-04-25T18:44:49;98980.03;;;15.79;46.88
55347;BME280;41218;55.700;38.270;2023-04-25T18:49:50;98976.53;;;15.75;47.08
55347;BME280;41218;55.700;38.270;2023-04-25T18:54:51;98967.06;;;15.69;47.11
55347;BME280;41218;55.700;38.270;2023-04-25T18:59:51;98964.75;;;15.63;47.49
55347;BME280;41218;55.700;38.270;2023-04-25T19:04:52;98956.19;;;15.51;48.03
55347;BME280;41218;55.700;38.270;2023-04-25T19:09:53;98946.53;;;15.35;48.54
55347;BME280;41218;55.700;38.270;2023-04-25T19:14:53;98944.59;;;15.29;48.64
55347;BME280;41218;55.700;38.270;2023-04-25T19:19:54;98928.09;;;15.18;49.24
55347;BME280;41218;55.700;38.270;2023-04-25T19:24:55;98916.38;;;15.03;49.51
55347;BME280;41218;55.700;38.270;2023-04-25T19:29:58;98920.47;;;14.95;50.30
55347;BME280;41218;55.700;38.270;2023-04-25T19:35:07;98906.34;;;14.82;50.64
55347;BME280;41218;55.700;38.270;2023-04-25T19:40:09;98896.63;;;14.67;51.44
55347;BME280;41218;55.700;38.270;2023-04-25T19:45:10;98888.00;;;14.57;51.99
55347;BME280;41218;55.700;38.270;2023-04-25T19:50:11;98889.44;;;14.69;50.54
55347;BME280;41218;55.700;38.270;2023-04-25T19:55:11;98876.47;;;14.59;51.53
55347;BME280;41218;55.700;38.270;2023-04-25T20:00:14;98866.22;;;14.52;52.89
55347;BME280;41218;55.700;38.270;2023-04-25T20:05:16;98850.09;;;14.40;52.90
55347;BME280;41218;55.700;38.270;2023-04-25T20:10:17;98844.25;;;14.31;53.00
55347;BME280;41218;55.700;38.270;2023-04-25T20:15:17;98850.22;;;14.29;53.38
55347;BME280;41218;55.700;38.270;2023-04-25T20:20:18;98835.69;;;14.18;53.74
55347;BME280;41218;55.700;38.270;2023-04-25T20:25:19;98821.50;;;14.09;53.94
55347;BME280;41218;55.700;38.270;2023-04-25T20:30:19;98818.88;;;13.98;54.44
55347;BME280;41218;55.700;38.270;2023-04-25T20:35:20;98810.28;;;13.85;54.96
55347;BME280;41218;55.700;38.270;2023-04-25T20:40:22;98805.53;;;13.86;55.07
55347;BME280;41218;55.700;38.270;2023-04-25T20:45:22;98803.16;;;13.84;55.23
55347;BME280;41218;55.700;38.270;2023-04-25T20:50:26;98790.09;;;13.81;55.38
55347;BME280;41218;55.700;38.270;2023-04-25T20:55:27;98794.84;;;13.80;56.04
55347;BME280;41218;55.700;38.270;2023-04-25T21:00:27;98785.03;;;13.72;56.26
55347;BME280;41218;55.700;38.270;2023-04-25T21:05:28;98765.72;;;13.61;56.54
55347;BME280;41218;55.700;38.270;2023-04-25T21:10:29;98766.97;;;13.57;56.85
55347;BME280;41218;55.700;38.270;2023-04-25T21:15:29;98752.81;;;13.44;57.35
55347;BME280;41218;55.700;38.270;2023-04-25T21:20:30;98757.19;;;13.45;57.46
55347;BME280;41218;55.700;38.270;2023-04-25T21:25:31;98756.84;;;13.39;57.87
55347;BME280;41218;55.700;38.270;2023-04-25T21:30:32;98739.03;;;13.37;58.04
55347;BME280;41218;55.700;38.270;2023-04-25T21:35:35;98737.91;;;13.27;58.35
55347;BME280;41218;55.700;38.270;2023-04-25T21:40:36;98731.59;;;13.27;58.53
55347;BME280;41218;55.700;38.270;2023-04-25T21:45:36;98718.91;;;13.26;58.56
55347;BME280;41218;55.700;38.270;2023-04-25T21:50:37;98712.19;;;13.23;58.81
55347;BME280;41218;55.700;38.270;2023-04-25T21:55:37;98710.59;;;13.26;58.85
55347;BME280;41218;55.700;38.270;2023-04-25T22:00:38;98701.88;;;13.23;58.77
55347;BME280;41218;55.700;38.270;2023-04-25T22:05:38;98687.59;;;13.25;58.94
55347;BME280;41218;55.700;38.270;2023-04-25T22:10:40;98682.09;;;13.21;59.10
55347;BME280;41218;55.700;38.270;2023-04-25T22:15:41;98663.53;;;13.15;59.47
55347;BME280;41218;55.700;38.270;2023-04-25T22:20:41;98653.72;;;13.07;59.86
55347;BME280;41218;55.700;38.270;2023-04-25T22:25:43;98644.69;;;12.99;60.21
55347;BME280;41218;55.700;38.270;2023-04-25T22:30:44;98638.03;;;12.93;60.58
55347;BME280;41218;55.700;38.270;2023-04-25T22:35:44;98629.41;;;12.83;60.89
55347;BME280;41218;55.700;38.270;2023-04-25T22:40:45;98625.84;;;12.83;61.12
55347;BME280;41218;55.700;38.270;2023-04-25T22:45:47;98615.31;;;12.67;61.63
55347;BME280;41218;55.700;38.270;2023-04-25T22:50:47;98610.56;;;12.68;61.77
55347;BME280;41218;55.700;38.270;2023-04-25T22:55:54;98588.06;;;12.58;63.02
55347;BME280;41218;55.700;38.270;2023-04-25T23:00:56;98571.94;;;12.50;62.27
55347;BME280;41218;55.700;38.270;2023-04-25T23:05:58;98566.00;;;12.51;62.56
55347;BME280;41218;55.700;38.270;2023-04-25T23:10:59;98561.56;;;12.57;62.17
55347;BME280;41218;55.700;38.270;2023-04-25T23:16:04;98550.88;;;12.56;63.34
55347;BME280;41218;55.700;38.270;2023-04-25T23:21:06;98551.31;;;12.51;62.97
55347;BME280;41218;55.700;38.270;2023-04-25T23:26:09;98534.78;;;12.43;63.26
55347;BME280;41218;55.700;38.270;2023-04-25T23:31:09;98536.34;;;12.45;63.37
55347;BME280;41218;55.700;38.270;2023-04-25T23:36:18;98527.66;;;12.42;64.29
55347;BME280;41218;55.700;38.270;2023-04-25T23:41:20;98515.13;;;12.31;64.15
55347;BME280;41218;55.700;38.270;2023-04-25T23:46:22;98493.19;;;12.09;64.33
55347;BME280;41218;55.700;38.270;2023-04-25T23:51:22;98507.38;;;12.15;64.70
55347;BME280;41218;55.700;38.270;2023-04-25T23:56:24;98497.50;;;12.10;65.01
